Time;durP1;ratioP1;P1;durP2;ratioP2;P2;SDS_P1;SDS_P2;PMS_P1;PMS_P2;Temp;Humidity;BMP_temperature;BMP_pressure;BME280_temperature;BME280_humidity;BME280_pressure;Samples;Min_cycle;Max_cycle;Signal;HPM_P1;HPM_P2
2021/06/01 00:01:31;;;;;;;2.28;1.70;;;;;;;14.08;49.96;100754.59;5027044;28;20071;-79
2021/06/01 00:03:57;;;;;;;1.98;1.58;;;;;;;13.99;51.55;100745.84;5048811;28;20120;-78
2021/06/01 00:06:23;;;;;;;3.13;1.80;;;;;;;14.03;50.08;100747.13;5048347;28;20103;-78
2021/06/01 00:08:48;;;;;;;3.20;2.05;;;;;;;14.15;48.66;100742.28;5048228;28;20444;-78
2021/06/01 00:11:13;;;;;;;2.38;1.83;;;;;;;14.18;50.83;100739.31;5047927;28;20052;-78
2021/06/01 00:13:41;;;;;;;3.35;2.00;;;;;;;14.29;48.40;100742.59;5048670;28;20561;-79
2021/06/01 00:16:07;;;;;;;2.72;1.90;;;;;;;14.32;48.33;100742.25;5047978;28;20053;-79
2021/06/01 00:18:33;;;;;;;3.45;1.90;;;;;;;14.30;48.62;100738.94;5048562;28;20510;-78
2021/06/01 00:20:59;;;;;;;3.20;2.08;;;;;;;14.37;48.08;100746.09;5047830;28;20041;-78
2021/06/01 00:23:24;;;;;;;3.35;2.03;;;;;;;14.41;47.59;100743.91;5048251;28;20112;-78
2021/06/01 00:25:50;;;;;;;2.60;1.95;;;;;;;14.32;48.52;100744.91;5046925;28;20499;-79
2021/06/01 00:28:16;;;;;;;3.17;1.70;;;;;;;14.31;48.06;100745.94;5047241;28;20537;-79
2021/06/01 00:30:41;;;;;;;3.80;1.98;;;;;;;14.36;48.07;100740.94;5047345;28;20499;-78
2021/06/01 00:33:08;;;;;;;1.90;1.60;;;;;;;14.23;50.12;100744.94;5047983;28;20032;-78
2021/06/01 00:35:34;;;;;;;3.50;2.20;;;;;;;14.29;48.22;100745.25;5013039;28;20029;-78
2021/06/01 00:38:03;;;;;;;2.88;2.10;;;;;;;14.17;48.65;100742.13;5033772;28;20031;-78
2021/06/01 00:40:29;;;;;;;2.63;2.15;;;;;;;14.21;48.51;100735.47;5032225;28;20420;-78
2021/06/01 00:42:54;;;;;;;3.25;2.30;;;;;;;14.18;48.62;100739.31;5044414;28;20098;-78
2021/06/01 00:45:21;;;;;;;2.88;1.90;;;;;;;14.16;48.31;100740.50;5042859;28;20037;-78
2021/06/01 00:47:47;;;;;;;2.58;1.80;;;;;;;14.08;48.75;100743.97;5047661;28;20037;-77
2021/06/01 00:50:13;;;;;;;2.30;1.80;;;;;;;13.99;49.75;100745.84;5047747;28;20033;-78
2021/06/01 00:52:39;;;;;;;2.35;1.70;;;;;;;14.01;49.38;100748.31;5047773;28;20029;-78
2021/06/01 00:55:06;;;;;;;3.13;1.90;;;;;;;13.99;49.18;100745.84;5030700;28;20071;-78
2021/06/01 00:57:32;;;;;;;2.85;2.10;;;;;;;14.03;48.92;100739.16;5048846;28;20029;-78
2021/06/01 00:59:58;;;;;;;2.95;2.28;;;;;;;13.98;49.21;100738.84;5048465;28;20069;-78
2021/06/01 01:02:26;;;;;;;3.30;1.60;;;;;;;13.94;49.96;100734.88;5047497;28;20514;-78
2021/06/01 01:04:52;;;;;;;3.17;1.70;;;;;;;13.88;50.24;100745.34;5048462;28;20402;-78
2021/06/01 01:08:04;;;;;;;2.13;1.75;;;;;;;13.83;50.60;100742.38;5046438;28;20037;-78
2021/06/01 01:10:08;;;;;;;2.85;1.50;;;;;;;13.65;53.15;100745.19;5029247;28;20036;-78
2021/06/01 01:13:01;;;;;;;2.15;1.65;;;;;;;13.55;51.22;100748.00;5037239;28;20090;-78
2021/06/01 01:15:28;;;;;;;2.13;1.63;;;;;;;13.47;54.79;100742.72;5039030;28;20048;-77
2021/06/01 01:18:01;;;;;;;2.60;1.92;;;;;;;13.43;53.66;100739.53;5046895;28;20033;-77
2021/06/01 01:20:43;;;;;;;2.45;1.80;;;;;;;13.34;56.50;100740.53;5046030;28;20033;-78
2021/06/01 01:23:30;;;;;;;3.42;1.70;;;;;;;13.44;51.54;100740.38;5032883;28;20041;-78
2021/06/01 01:26:15;;;;;;;2.35;1.80;;;;;;;13.57;50.69;100744.19;5046466;28;20079;-78
2021/06/01 01:29:03;;;;;;;2.72;1.75;;;;;;;13.66;50.24;100733.56;5047721;28;20044;-78
2021/06/01 01:31:37;;;;;;;2.70;1.83;;;;;;;13.69;50.13;100741.22;5047665;28;20037;-78
2021/06/01 01:34:04;;;;;;;4.03;2.10;;;;;;;13.77;49.52;100744.69;5048842;28;20120;-78
2021/06/01 01:36:34;;;;;;;3.00;1.90;;;;;;;13.79;49.56;100736.53;5049582;28;20068;-78
2021/06/01 01:39:00;;;;;;;2.13;1.65;;;;;;;13.74;49.96;100755.66;5051370;28;20484;-78
2021/06/01 01:41:35;;;;;;;2.38;1.90;;;;;;;13.71;50.42;100749.84;5050480;28;20566;-78
2021/06/01 01:44:06;;;;;;;2.33;1.80;;;;;;;13.73;49.82;100742.50;5051493;28;20037;-77
2021/06/01 01:48:58;;;;;;;3.63;2.10;;;;;;;13.71;50.06;100742.69;5049834;28;20037;-78
2021/06/01 01:49:23;;;;;;;2.55;1.70;;;;;;;13.63;50.26;100742.69;5032672;28;20040;-78
2021/06/01 01:51:58;;;;;;;2.30;1.92;;;;;;;13.64;49.91;100741.72;5051824;28;20049;-78
2021/06/01 01:54:28;;;;;;;2.65;1.80;;;;;;;13.58;51.80;100742.38;5040191;28;20252;-78
2021/06/01 01:56:58;;;;;;;2.58;1.90;;;;;;;13.55;50.75;100748.00;5051356;28;20111;-78
2021/06/01 01:59:29;;;;;;;1.85;1.40;;;;;;;13.46;52.61;100749.00;5051665;28;20645;-77
2021/06/01 02:01:56;;;;;;;2.30;1.83;;;;;;;13.26;54.57;100743.16;5050869;28;20155;-78
2021/06/01 02:04:28;;;;;;;2.17;1.80;;;;;;;13.10;55.86;100742.13;5049965;28;20052;-77
2021/06/01 02:06:54;;;;;;;2.28;1.60;;;;;;;13.05;53.66;100741.78;5050932;28;20041;-78
2021/06/01 02:09:20;;;;;;;2.70;1.90;;;;;;;13.09;52.67;100743.13;5051146;28;20075;-77
2021/06/01 02:11:46;;;;;;;2.45;2.10;;;;;;;13.01;53.32;100742.25;5032591;28;20056;-77
2021/06/01 02:14:12;;;;;;;3.00;2.00;;;;;;;12.88;53.96;100743.56;5050013;28;20029;-78
2021/06/01 02:16:39;;;;;;;3.05;2.33;;;;;;;12.86;53.57;100745.53;5051414;28;20120;-78
2021/06/01 02:19:06;;;;;;;3.65;2.35;;;;;;;12.82;53.75;100746.03;5032702;28;20387;-78
2021/06/01 02:24:45;;;;;;;2.85;1.95;;;;;;;12.72;54.62;100740.84;5050391;28;20036;-78
2021/06/01 02:27:31;;;;;;;2.47;1.85;;;;;;;12.71;54.27;100750.63;5046040;28;20506;-78
2021/06/01 02:30:30;;;;;;;3.08;2.28;;;;;;;12.69;54.48;100749.97;5050800;28;20055;-78
2021/06/01 02:32:59;;;;;;;4.65;2.38;;;;;;;12.57;54.66;100751.25;5038849;28;20036;-78
2021/06/01 02:35:35;;;;;;;3.15;1.90;;;;;;;12.43;55.96;100752.66;5049818;28;20032;-78
2021/06/01 02:38:04;;;;;;;3.20;1.95;;;;;;;12.49;54.97;100756.53;5050657;28;20041;-77
2021/06/01 02:40:31;;;;;;;3.45;2.20;;;;;;;12.44;55.32;100753.50;5050067;28;20392;-77
2021/06/01 02:43:00;;;;;;;4.32;2.00;;;;;;;12.45;55.55;100750.69;5050611;28;20399;-77
2021/06/01 02:45:26;;;;;;;4.68;2.15;;;;;;;12.39;55.30;100746.00;5049854;28;20151;-77
2021/06/01 02:47:52;;;;;;;3.22;2.08;;;;;;;12.38;55.98;100747.00;5045464;28;20147;-78
2021/06/01 02:50:19;;;;;;;3.15;2.00;;;;;;;12.38;55.46;100747.00;5049868;28;20044;-79
2021/06/01 02:52:46;;;;;;;2.85;2.13;;;;;;;12.42;55.48;100751.03;5050742;28;20044;-79
2021/06/01 02:55:14;;;;;;;3.45;2.10;;;;;;;12.36;55.52;100745.50;5050064;28;20051;-77
2021/06/01 02:57:40;;;;;;;3.45;2.30;;;;;;;12.37;55.55;100752.47;5051067;28;20498;-78
2021/06/01 03:00:08;;;;;;;3.50;2.58;;;;;;;12.29;55.77;100738.16;5049871;28;20047;-77
2021/06/01 03:02:33;;;;;;;3.00;2.00;;;;;;;12.29;55.62;100740.00;5032251;28;20116;-78
2021/06/01 03:04:59;;;;;;;3.05;2.00;;;;;;;12.27;55.69;100740.16;5050616;28;20413;-78
2021/06/01 03:07:24;;;;;;;2.55;1.95;;;;;;;12.27;55.61;100744.63;5050186;28;20231;-77
2021/06/01 03:09:50;;;;;;;2.60;1.98;;;;;;;12.27;55.80;100734.84;5050099;28;20029;-78
2021/06/01 03:14:53;;;;;;;2.58;1.95;;;;;;;12.16;56.22;100742.25;5050807;28;20063;-78
2021/06/01 03:17:18;;;;;;;4.07;2.70;;;;;;;12.17;56.09;100735.97;5049895;28;20029;-77
2021/06/01 03:19:43;;;;;;;2.70;2.20;;;;;;;12.17;56.31;100739.44;5049600;28;20476;-79
2021/06/01 03:22:09;;;;;;;3.80;2.33;;;;;;;12.11;56.32;100735.59;5050724;28;20033;-78
2021/06/01 03:24:34;;;;;;;3.17;2.47;;;;;;;12.02;57.00;100735.72;5049745;28;20131;-78
2021/06/01 03:27:00;;;;;;;3.47;2.30;;;;;;;12.04;56.77;100742.50;5049772;28;20044;-78
2021/06/01 03:29:25;;;;;;;3.28;2.20;;;;;;;11.96;56.70;100733.66;5049830;28;20033;-78
2021/06/01 03:31:51;;;;;;;3.17;2.30;;;;;;;11.96;56.92;100733.66;5048995;28;20136;-79
2021/06/01 03:34:16;;;;;;;3.35;2.22;;;;;;;11.93;56.85;100734.81;5030476;28;20032;-77
2021/06/01 03:36:42;;;;;;;2.85;1.92;;;;;;;11.95;56.92;100735.50;5049618;28;20494;-77
2021/06/01 03:39:08;;;;;;;2.80;2.20;;;;;;;11.89;56.84;100731.66;5049614;28;20477;-77
2021/06/01 03:41:34;;;;;;;2.75;2.10;;;;;;;11.84;57.22;100736.53;5035582;28;20042;-78
2021/06/01 03:43:59;;;;;;;5.40;2.20;;;;;;;11.92;57.00;100740.25;5044601;28;20044;-78
2021/06/01 03:46:25;;;;;;;3.17;2.20;;;;;;;11.84;57.87;100746.31;5049263;28;20051;-78
2021/06/01 03:48:50;;;;;;;3.92;2.33;;;;;;;11.85;57.66;100743.50;5049351;28;20041;-78
2021/06/01 03:51:15;;;;;;;2.95;2.30;;;;;;;11.81;57.53;100736.03;5048834;28;20402;-78
2021/06/01 03:53:41;;;;;;;4.57;2.20;;;;;;;11.81;57.60;100734.19;5049325;28;20194;-78
2021/06/01 03:56:06;;;;;;;5.22;2.50;;;;;;;11.75;57.63;100737.50;5048271;28;20036;-77
2021/06/01 03:58:31;;;;;;;4.03;2.13;;;;;;;11.75;58.02;100739.28;5031192;28;20039;-77
2021/06/01 04:00:57;;;;;;;3.60;2.08;;;;;;;11.71;57.82;100730.81;5048608;28;20052;-78
2021/06/01 04:03:22;;;;;;;2.92;2.20;;;;;;;11.78;57.67;100731.88;5053845;28;20029;-78
2021/06/01 04:05:47;;;;;;;2.80;2.10;;;;;;;11.76;58.15;100736.50;5053030;28;20359;-77
2021/06/01 04:08:12;;;;;;;3.33;2.33;;;;;;;11.81;57.59;100736.03;5051752;28;20103;-79
2021/06/01 04:10:38;;;;;;;3.92;2.10;;;;;;;11.82;57.59;100727.94;5055416;28;20033;-78
2021/06/01 04:13:04;;;;;;;3.42;2.38;;;;;;;11.89;57.67;100730.81;5052422;28;20048;-79
2021/06/01 04:15:29;;;;;;;3.95;2.20;;;;;;;11.83;57.61;100728.75;5049033;28;20025;-78
2021/06/01 04:17:54;;;;;;;4.15;2.40;;;;;;;11.82;57.55;100735.03;5051567;28;20082;-78
2021/06/01 04:20:21;;;;;;;2.85;2.05;;;;;;;11.81;57.92;100734.19;5054459;28;20025;-78
2021/06/01 04:22:46;;;;;;;3.53;2.50;;;;;;;11.87;57.81;100732.81;5061759;28;20040;-79
2021/06/01 04:25:11;;;;;;;4.03;2.22;;;;;;;11.79;58.08;100733.53;5033293;28;20029;-78
2021/06/01 04:27:37;;;;;;;2.90;2.10;;;;;;;11.79;58.29;100727.41;5051739;28;20067;-78
2021/06/01 04:30:06;;;;;;;3.53;1.88;;;;;;;11.89;57.71;100722.84;5051229;28;20037;-78
2021/06/01 04:32:32;;;;;;;3.25;2.40;;;;;;;11.98;57.74;100732.53;5047518;28;20490;-78
2021/06/01 04:34:57;;;;;;;3.67;2.35;;;;;;;12.13;57.15;100739.91;5050913;28;20045;-78
2021/06/01 04:37:22;;;;;;;3.25;2.00;;;;;;;12.08;57.22;100737.72;5050921;28;20490;-78
2021/06/01 04:39:48;;;;;;;2.80;2.15;;;;;;;12.16;56.88;100736.97;5031661;28;20044;-78
2021/06/01 04:42:14;;;;;;;2.75;2.38;;;;;;;12.15;57.25;100730.81;5040744;28;20041;-78
2021/06/01 04:44:40;;;;;;;3.17;2.22;;;;;;;12.21;57.44;100729.38;5050677;28;20514;-78
2021/06/01 04:47:05;;;;;;;2.60;2.08;;;;;;;12.28;56.73;100731.22;5048579;28;20086;-78
2021/06/01 04:49:30;;;;;;;3.25;2.47;;;;;;;12.33;56.88;100731.56;5048965;28;20089;-78
2021/06/01 04:51:56;;;;;;;2.95;2.08;;;;;;;12.43;56.76;100734.09;5048878;28;20086;-78
2021/06/01 04:54:21;;;;;;;2.78;2.03;;;;;;;12.47;57.02;100730.16;5048504;28;20187;-78
2021/06/01 04:56:46;;;;;;;4.43;2.55;;;;;;;12.54;56.68;100731.19;5049367;28;20040;-78
2021/06/01 04:59:12;;;;;;;4.47;2.72;;;;;;;12.65;56.07;100724.72;5049257;28;20033;-78
2021/06/01 05:01:38;;;;;;;3.40;2.20;;;;;;;12.72;56.18;100730.25;5049475;28;20045;-77
2021/06/01 05:04:04;;;;;;;2.78;2.13;;;;;;;12.77;56.04;100724.44;5048763;28;20045;-78
2021/06/01 05:06:29;;;;;;;3.65;2.13;;;;;;;12.89;55.67;100723.97;5049386;28;20136;-78
2021/06/01 05:08:54;;;;;;;3.40;2.30;;;;;;;13.00;55.54;100722.03;5053085;28;20171;-78
2021/06/01 05:11:20;;;;;;;3.22;2.10;;;;;;;13.13;55.29;100719.72;5053611;28;20079;-78
2021/06/01 05:13:46;;;;;;;3.67;2.17;;;;;;;13.18;55.27;100720.91;5053895;28;20044;-78
2021/06/01 05:16:12;;;;;;;2.67;2.20;;;;;;;13.33;54.81;100721.09;5052950;28;20434;-78
2021/06/01 05:18:38;;;;;;;3.20;2.00;;;;;;;13.45;55.02;100720.78;5053553;28;20067;-78
2021/06/01 05:21:04;;;;;;;2.80;1.98;;;;;;;13.57;54.25;100716.81;5052879;28;20041;-78
2021/06/01 05:23:30;;;;;;;3.10;2.13;;;;;;;13.74;53.95;100720.28;5035085;28;20040;-79
2021/06/01 05:25:55;;;;;;;3.13;2.10;;;;;;;13.88;53.82;100716.94;5052616;28;20043;-78
2021/06/01 05:28:21;;;;;;;2.33;1.98;;;;;;;13.96;53.82;100719.56;5051993;28;20099;-78
2021/06/01 05:33:33;;;;;;;2.55;1.90;;;;;;;14.21;54.02;100728.31;5052476;28;20090;-78
2021/06/01 05:35:58;;;;;;;2.53;2.13;;;;;;;14.27;54.01;100726.81;5052185;28;20103;-78
2021/06/01 05:38:26;;;;;;;3.13;1.88;;;;;;;14.45;53.54;100723.94;5051765;28;20494;-78
2021/06/01 05:40:53;;;;;;;3.28;2.05;;;;;;;14.58;54.58;100723.41;5052738;28;20033;-79
2021/06/01 05:43:18;;;;;;;2.30;1.80;;;;;;;14.81;53.65;100726.13;5057224;28;20037;-80
2021/06/01 05:45:44;;;;;;;3.40;2.00;;;;;;;15.14;52.68;100721.44;5055614;28;20137;-80
2021/06/01 05:48:10;;;;;;;2.95;2.00;;;;;;;15.67;50.91;100725.00;5056033;28;20049;-80
2021/06/01 05:50:37;;;;;;;3.28;2.00;;;;;;;16.16;50.75;100730.91;5041181;28;20045;-79
2021/06/01 05:53:04;;;;;;;2.75;2.00;;;;;;;16.56;49.91;100729.59;5059212;28;20045;-79
2021/06/01 05:55:30;;;;;;;2.90;1.95;;;;;;;16.92;48.99;100728.81;5059139;28;20032;-79
2021/06/01 05:57:55;;;;;;;3.70;2.00;;;;;;;17.37;47.15;100732.16;5058777;28;20033;-80
2021/06/01 06:00:22;;;;;;;2.53;1.90;;;;;;;17.78;46.01;100724.31;5056940;28;20063;-79
2021/06/01 06:02:47;;;;;;;2.17;1.50;;;;;;;18.28;47.19;100724.22;5039606;28;20041;-80
2021/06/01 06:05:13;;;;;;;2.58;1.73;;;;;;;18.74;46.44;100734.34;5058108;28;20439;-80
2021/06/01 06:07:40;;;;;;;2.60;1.50;;;;;;;19.28;45.34;100725.47;5039673;28;20088;-79
2021/06/01 06:10:06;;;;;;;2.08;1.35;;;;;;;19.85;44.84;100730.44;5057215;28;20090;-79
2021/06/01 06:12:31;;;;;;;2.88;1.85;;;;;;;20.21;40.41;100734.50;5039453;28;20036;-80
2021/06/01 06:14:56;;;;;;;2.05;1.65;;;;;;;20.57;41.70;100723.28;5058186;28;20033;-80
2021/06/01 06:17:29;;;;;;;2.03;1.50;;;;;;;20.99;39.97;100724.50;5041401;28;20108;-80
2021/06/01 06:19:59;;;;;;;3.58;1.67;;;;;;;21.08;38.61;100729.66;5055374;28;20041;-80
2021/06/01 06:22:24;;;;;;;2.80;1.73;;;;;;;21.32;38.47;100723.47;5053078;28;20586;-80
2021/06/01 06:24:50;;;;;;;2.10;1.25;;;;;;;21.78;38.78;100719.59;5039247;28;20123;-82
2021/06/01 06:27:16;;;;;;;2.50;1.58;;;;;;;22.28;37.37;100732.19;5057920;28;20095;-82
2021/06/01 06:29:42;;;;;;;1.98;1.45;;;;;;;22.42;35.17;100735.56;5039675;28;20048;-81
2021/06/01 06:32:07;;;;;;;2.03;1.40;;;;;;;22.62;35.21;100728.09;5056717;28;20548;-79
2021/06/01 06:34:33;;;;;;;2.60;1.65;;;;;;;22.91;33.77;100722.94;5035197;28;20341;-79
2021/06/01 06:36:58;;;;;;;5.05;2.38;;;;;;;23.12;33.29;100735.13;5048788;28;20380;-80
2021/06/01 06:39:23;;;;;;;2.45;1.80;;;;;;;22.93;34.21;100726.22;5046807;28;20037;-79
2021/06/01 06:41:48;;;;;;;2.15;1.65;;;;;;;23.07;33.39;100725.03;5053178;28;20104;-81
2021/06/01 06:44:15;;;;;;;3.10;1.67;;;;;;;23.18;32.47;100722.59;5052509;28;20597;-80
2021/06/01 06:46:43;;;;;;;3.38;1.70;;;;;;;23.54;31.90;100718.88;5053217;28;20098;-80
2021/06/01 06:49:09;;;;;;;2.50;1.63;;;;;;;23.68;31.17;100722.19;5053159;28;20052;-79
2021/06/01 06:51:38;;;;;;;2.20;1.45;;;;;;;24.02;31.55;100722.47;5053137;28;20033;-80
2021/06/01 06:54:03;;;;;;;4.65;1.83;;;;;;;24.36;29.91;100716.19;5046449;28;20025;-80
2021/06/01 06:56:30;;;;;;;1.85;1.40;;;;;;;24.25;30.89;100727.84;5051557;28;20527;-81
2021/06/01 06:58:57;;;;;;;3.25;1.35;;;;;;;24.75;31.12;100731.84;5053606;28;20603;-80
2021/06/01 07:01:22;;;;;;;1.92;1.20;;;;;;;25.06;28.93;100721.59;5052318;28;20041;-80
2021/06/01 07:03:48;;;;;;;3.05;1.58;;;;;;;25.33;29.00;100732.66;5052668;28;20078;-82
2021/06/01 07:06:17;;;;;;;2.25;1.00;;;;;;;25.48;30.70;100729.38;5033826;28;20044;-80
2021/06/01 07:08:43;;;;;;;2.00;1.20;;;;;;;26.01;29.63;100728.06;5053063;28;20059;-79
2021/06/01 07:11:09;;;;;;;1.58;1.20;;;;;;;26.53;29.79;100737.66;5053492;28;20041;-80
2021/06/01 07:13:40;;;;;;;1.95;1.08;;;;;;;26.90;29.13;100729.72;5053008;28;20120;-81
2021/06/01 07:16:05;;;;;;;1.83;1.17;;;;;;;27.17;27.44;100732.41;5052004;28;20064;-80
2021/06/01 07:18:35;;;;;;;1.95;0.98;;;;;;;26.85;25.83;100716.09;5053018;28;20219;-80
2021/06/01 07:21:01;;;;;;;0.98;0.80;;;;;;;26.38;27.21;100717.44;5052617;28;20033;-80
2021/06/01 07:23:27;;;;;;;1.92;1.20;;;;;;;26.76;25.64;100723.06;5052433;28;20425;-80
2021/06/01 07:25:52;;;;;;;1.88;1.10;;;;;;;26.85;26.07;100714.19;5050832;28;20045;-80
2021/06/01 07:28:17;;;;;;;1.42;1.10;;;;;;;27.24;25.09;100713.25;5050218;28;20029;-80
2021/06/01 07:30:42;;;;;;;1.77;1.25;;;;;;;27.18;24.61;100711.53;5034938;28;20040;-81
2021/06/01 07:33:08;;;;;;;1.25;1.15;;;;;;;26.55;25.87;100706.53;5050861;28;20542;-79
2021/06/01 07:35:33;;;;;;;1.60;1.00;;;;;;;26.75;26.63;100705.97;5051981;28;20035;-80
2021/06/01 07:37:58;;;;;;;1.80;1.17;;;;;;;27.07;24.72;100710.63;5052127;28;20186;-80
2021/06/01 07:40:25;;;;;;;1.50;1.00;;;;;;;26.98;25.79;100713.00;5047942;28;20080;-80
2021/06/01 07:42:51;;;;;;;1.75;1.10;;;;;;;26.77;24.42;100722.81;5042293;28;20068;-80
2021/06/01 07:45:16;;;;;;;2.33;1.20;;;;;;;26.23;24.32;100719.97;5052619;28;20061;-80
2021/06/01 07:47:42;;;;;;;1.50;1.08;;;;;;;26.38;24.27;100716.63;5052502;28;20083;-81
2021/06/01 07:50:09;;;;;;;2.47;1.20;;;;;;;26.55;23.96;100713.84;5050043;28;20048;-81
2021/06/01 07:52:34;;;;;;;1.70;1.02;;;;;;;26.46;25.68;100717.00;5052477;28;20041;-80
2021/06/01 07:55:00;;;;;;;1.40;1.08;;;;;;;26.28;24.96;100711.88;5051139;28;20505;-80
2021/06/01 07:57:25;;;;;;;1.60;1.00;;;;;;;26.48;24.77;100714.84;5050477;28;20029;-81
2021/06/01 07:59:50;;;;;;;1.80;1.10;;;;;;;26.66;24.36;100713.72;5052193;28;20094;-79
2021/06/01 08:02:16;;;;;;;1.75;1.17;;;;;;;26.72;23.78;100711.91;5051607;28;20307;-80
2021/06/01 08:04:41;;;;;;;2.03;1.20;;;;;;;26.16;23.79;100701.16;5050101;28;20060;-80
2021/06/01 08:07:08;;;;;;;1.55;1.02;;;;;;;26.10;24.14;100704.91;5051173;28;20686;-80
2021/06/01 08:09:37;;;;;;;1.67;1.08;;;;;;;26.60;23.40;100700.34;5051957;28;20387;-80
2021/06/01 08:12:03;;;;;;;1.40;1.00;;;;;;;26.55;23.35;100700.31;5050916;28;20059;-81
2021/06/01 08:14:29;;;;;;;1.90;1.00;;;;;;;26.52;24.05;100689.94;5051836;28;20025;-80
2021/06/01 08:16:55;;;;;;;1.75;1.10;;;;;;;26.40;23.42;100701.72;5051712;28;20037;-81
2021/06/01 08:19:30;;;;;;;1.48;0.98;;;;;;;26.28;24.32;100692.91;5051554;28;20055;-79
2021/06/01 08:22:08;;;;;;;2.15;1.27;;;;;;;26.45;22.77;100690.13;5051257;28;20040;-80
2021/06/01 08:24:35;;;;;;;2.20;1.20;;;;;;;26.75;23.65;100697.81;5050343;28;20048;-80
2021/06/01 08:27:00;;;;;;;1.67;1.20;;;;;;;26.57;23.91;100698.16;5050942;28;20037;-80
2021/06/01 08:29:26;;;;;;;1.45;1.17;;;;;;;26.54;22.50;100688.63;5050669;28;20060;-80
2021/06/01 08:31:51;;;;;;;1.83;1.20;;;;;;;26.54;23.57;100687.81;5050616;28;20040;-80
2021/06/01 08:34:17;;;;;;;1.02;0.88;;;;;;;26.69;23.76;100677.94;5043478;28;20171;-81
2021/06/01 08:36:42;;;;;;;1.63;1.10;;;;;;;27.20;23.03;100683.09;5051716;28;20040;-79
2021/06/01 08:39:09;;;;;;;1.33;1.13;;;;;;;26.88;21.88;100678.41;5051444;28;20036;-80
2021/06/01 08:41:37;;;;;;;1.40;1.10;;;;;;;26.66;22.41;100683.06;5036646;28;20272;-80
2021/06/01 08:44:04;;;;;;;2.22;1.17;;;;;;;27.36;22.26;100684.00;5049597;28;20106;-80
2021/06/01 08:46:31;;;;;;;1.98;1.17;;;;;;;27.38;20.89;100678.31;5050173;28;20044;-80
2021/06/01 08:48:57;;;;;;;2.20;1.10;;;;;;;27.73;20.72;100666.91;5050804;28;20029;-80
2021/06/01 08:51:24;;;;;;;2.13;1.10;;;;;;;27.92;21.07;100678.16;5051269;28;20505;-79
2021/06/01 08:53:55;;;;;;;1.85;1.17;;;;;;;27.70;20.51;100676.38;5038781;28;20037;-80
2021/06/01 08:56:21;;;;;;;2.45;1.00;;;;;;;27.20;21.07;100672.22;5050619;28;20044;-81
2021/06/01 08:58:49;;;;;;;2.60;1.02;;;;;;;28.15;21.13;100669.59;5031874;28;20041;-82
2021/06/01 09:01:14;;;;;;;1.90;1.33;;;;;;;27.38;22.10;100662.84;5050380;28;20052;-80
2021/06/01 09:03:55;;;;;;;2.08;1.10;;;;;;;27.96;20.16;100662.97;5051310;28;20037;-82
2021/06/01 09:06:40;;;;;;;2.67;1.25;;;;;;;27.61;20.34;100664.38;5050253;28;20044;-80
2021/06/01 09:22:05;;;;;;;1.50;1.00;;;;;;;27.20;22.71;100647.78;5050159;28;20032;-80
2021/06/01 09:24:30;;;;;;;2.33;1.00;;;;;;;27.32;22.50;100645.72;5051155;28;20037;-80
2021/06/01 09:29:27;;;;;;;2.75;1.20;;;;;;;27.86;22.39;100639.25;5050248;28;20080;-81
2021/06/01 09:32:04;;;;;;;1.95;1.08;;;;;;;27.86;22.68;100638.44;5054704;28;20033;-80
2021/06/01 09:34:47;;;;;;;1.25;0.90;;;;;;;28.00;21.98;100650.47;5044399;28;20380;-81
2021/06/01 09:37:19;;;;;;;1.80;1.10;;;;;;;27.64;20.32;100633.97;5052412;28;20040;-82
2021/06/01 09:39:44;;;;;;;1.38;0.98;;;;;;;26.75;22.40;100630.00;5047552;28;20045;-80
2021/06/01 09:42:26;;;;;;;2.05;1.10;;;;;;;26.48;22.17;100619.09;5054091;28;20044;-81
2021/06/01 09:45:05;;;;;;;3.00;1.00;;;;;;;26.63;21.58;100623.91;5053970;28;20044;-81
2021/06/01 09:48:04;;;;;;;2.65;1.10;;;;;;;26.63;21.64;100624.72;5048951;28;20504;-81
2021/06/01 09:53:03;;;;;;;1.92;1.10;;;;;;;26.06;24.17;100601.59;5038857;28;20036;-81
2021/06/01 09:55:35;;;;;;;2.38;1.30;;;;;;;26.39;22.45;100610.63;5062879;28;20029;-80
2021/06/01 09:58:03;;;;;;;1.77;1.25;;;;;;;26.03;22.81;100620.25;5051231;28;20040;-80
2021/06/01 10:00:31;;;;;;;1.90;1.00;;;;;;;26.17;22.53;100610.66;5048087;28;20045;-81
2021/06/01 10:03:01;;;;;;;1.92;1.15;;;;;;;26.20;22.53;100618.28;5046558;28;20029;-80
2021/06/01 10:05:32;;;;;;;1.87;1.30;;;;;;;26.31;22.60;100607.53;5048538;28;20133;-81
2021/06/01 10:07:59;;;;;;;2.22;1.33;;;;;;;26.20;22.73;100604.72;5045419;28;20465;-81
2021/06/01 10:10:27;;;;;;;1.90;1.20;;;;;;;25.92;23.09;100597.63;5042010;28;20029;-80
2021/06/01 10:12:55;;;;;;;2.08;1.38;;;;;;;26.08;22.50;100597.78;5053007;28;20506;-80
2021/06/01 10:15:23;;;;;;;1.73;1.10;;;;;;;25.89;23.28;100584.59;5047471;28;20037;-80
2021/06/01 10:17:50;;;;;;;2.08;1.27;;;;;;;25.89;22.44;100592.72;5052591;28;20030;-81
2021/06/01 10:20:21;;;;;;;1.80;1.30;;;;;;;25.94;22.31;100591.94;5047029;28;20036;-80
2021/06/01 10:22:46;;;;;;;2.28;1.25;;;;;;;25.28;24.63;100584.53;5050818;28;20029;-80
2021/06/01 10:25:12;;;;;;;3.60;1.30;;;;;;;25.64;23.21;100585.84;5052286;28;20672;-80
2021/06/01 10:27:38;;;;;;;2.03;1.17;;;;;;;25.58;23.08;100577.91;5055013;28;20039;-80
2021/06/01 10:30:06;;;;;;;1.75;1.20;;;;;;;25.56;23.82;100572.75;5055636;28;20428;-80
2021/06/01 10:32:36;;;;;;;2.00;1.42;;;;;;;25.66;23.87;100573.94;5051274;28;20518;-80
2021/06/01 10:35:03;;;;;;;3.50;1.15;;;;;;;25.89;22.32;100581.06;5047245;28;20041;-81
2021/06/01 10:52:01;;;;;;;2.55;1.27;;;;;;;25.82;25.29;100544.09;5034809;28;20060;-81
2021/06/01 10:54:38;;;;;;;1.55;1.10;;;;;;;25.88;24.92;100553.13;5034798;28;20391;-80
2021/06/01 10:57:04;;;;;;;1.60;1.20;;;;;;;25.91;23.90;100549.94;5035216;28;20033;-81
2021/06/01 11:02:24;;;;;;;1.70;1.20;;;;;;;25.67;24.39;100543.09;5053519;28;20037;-81
2021/06/01 11:05:03;;;;;;;1.63;1.23;;;;;;;25.71;26.27;100557.75;5055222;28;20380;-80
2021/06/01 11:07:51;;;;;;;1.58;1.10;;;;;;;25.98;25.41;100541.59;5054832;28;20033;-81
2021/06/01 11:10:55;;;;;;;1.80;1.33;;;;;;;25.99;24.18;100538.63;5051211;28;20029;-81
2021/06/01 11:13:23;;;;;;;2.20;1.35;;;;;;;25.95;24.53;100537.50;4972832;28;20034;-81
2021/06/01 11:15:56;;;;;;;1.58;1.10;;;;;;;25.85;25.47;100535.47;4980080;28;20031;-81
2021/06/01 11:18:30;;;;;;;1.80;1.15;;;;;;;25.80;24.83;100531.88;5010407;28;20033;-81
2021/06/01 11:21:39;;;;;;;1.90;1.20;;;;;;;25.90;24.84;100533.91;5054601;28;20037;-81
2021/06/01 11:32:55;;;;;;;3.15;1.30;;;;;;;26.09;23.73;100532.50;5047399;28;20043;-83
2021/06/01 11:35:28;;;;;;;1.67;1.20;;;;;;;25.58;24.31;100521.06;5050367;28;20048;-84
2021/06/01 11:43:04;;;;;;;1.90;1.20;;;;;;;25.41;25.21;100508.38;5048837;28;20029;-82
2021/06/01 11:45:40;;;;;;;2.08;1.30;;;;;;;25.63;24.83;100497.56;5052545;28;20059;-82
2021/06/01 11:48:10;;;;;;;1.70;1.17;;;;;;;25.70;24.49;100499.25;5048953;28;20040;-82
2021/06/01 11:53:19;;;;;;;1.83;1.20;;;;;;;25.94;25.49;100486.28;5055886;28;20086;-83
2021/06/01 11:55:47;;;;;;;2.38;1.73;;;;;;;26.28;24.79;100508.56;5037443;28;20389;-84
2021/06/01 12:03:59;;;;;;;2.72;1.42;;;;;;;25.80;24.73;100485.84;5053615;28;20048;-83
2021/06/01 12:12:06;;;;;;;2.03;1.40;;;;;;;25.77;23.73;100479.03;5053963;28;20524;-83
2021/06/01 12:17:50;;;;;;;7.38;1.30;;;;;;;25.88;23.38;100471.84;5054789;28;20560;-84
2021/06/01 12:20:15;;;;;;;1.60;1.13;;;;;;;25.71;24.77;100468.38;5056038;28;20158;-84
2021/06/01 12:22:40;;;;;;;3.33;1.25;;;;;;;25.59;25.35;100461.22;5056786;28;20092;-82
2021/06/01 12:25:11;;;;;;;1.70;1.30;;;;;;;25.67;24.41;100456.41;5038567;28;20033;-83
2021/06/01 12:27:54;;;;;;;3.65;1.40;;;;;;;25.83;24.35;100466.34;5044255;28;20398;-83
2021/06/01 12:33:07;;;;;;;1.90;1.20;;;;;;;25.90;24.20;100456.16;5054809;28;20052;-82
2021/06/01 12:43:42;;;;;;;4.18;1.35;;;;;;;26.37;24.36;100441.97;5054882;28;20118;-82
2021/06/01 13:14:30;;;;;;;1.90;1.27;;;;;;;25.96;24.55;100421.84;4971730;28;20119;-84
2021/06/01 13:39:07;;;;;;;1.73;1.15;;;;;;;26.06;23.42;100395.63;5033269;28;20311;-83
2021/06/01 13:46:52;;;;;;;2.78;1.30;;;;;;;26.04;22.68;100388.84;5053400;28;20059;-84
2021/06/01 13:49:23;;;;;;;1.98;1.30;;;;;;;25.94;23.34;100383.34;5048786;28;20063;-82
2021/06/01 13:57:07;;;;;;;1.98;1.40;;;;;;;26.32;23.21;100382.28;5057770;28;20390;-83